createdAt,value
2019-02-28T00:00:15.440Z,37.61
2019-02-28T00:01:15.820Z,37.59
2019-02-28T00:02:22.533Z,37.57
2019-02-28T00:03:15.797Z,37.59
2019-02-28T00:04:15.917Z,37.58
2019-02-28T00:05:16.253Z,37.61
2019-02-28T00:06:16.266Z,37.6
2019-02-28T00:07:18.725Z,37.57
2019-02-28T00:08:17.395Z,37.57
2019-02-28T00:09:15.230Z,37.6
2019-02-28T00:10:15.546Z,37.59
2019-02-28T00:11:15.617Z,37.57
2019-02-28T00:12:15.983Z,37.61
2019-02-28T00:13:15.569Z,37.61
2019-02-28T00:14:16.197Z,37.59
2019-02-28T00:15:15.411Z,37.57
2019-02-28T00:16:15.802Z,37.57
2019-02-28T00:17:16.141Z,37.58
2019-02-28T00:18:16.866Z,37.58
2019-02-28T00:19:16.651Z,37.58
2019-02-28T00:20:16.090Z,37.56
2019-02-28T00:21:15.652Z,37.59
2019-02-28T00:22:15.696Z,37.56
2019-02-28T00:23:15.765Z,37.59
2019-02-28T00:24:15.692Z,37.59
2019-02-28T00:25:15.667Z,37.59
2019-02-28T00:26:17.453Z,37.57
2019-02-28T00:27:22.046Z,37.56
2019-02-28T00:28:15.649Z,37.62
2019-02-28T00:29:17.457Z,37.55
2019-02-28T00:30:16.264Z,37.57
2019-02-28T00:31:15.510Z,37.58
2019-02-28T00:32:15.743Z,37.56
2019-02-28T00:33:15.636Z,37.55
2019-02-28T00:34:15.880Z,37.58
2019-02-28T00:35:15.756Z,37.51
2019-02-28T00:36:19.729Z,37.55
2019-02-28T00:37:16.083Z,37.58
2019-02-28T00:38:15.820Z,37.52
2019-02-28T00:39:15.676Z,37.51
2019-02-28T00:40:15.640Z,37.55
2019-02-28T00:41:16.510Z,37.53
2019-02-28T00:42:18.361Z,37.56
2019-02-28T00:43:17.487Z,37.54
2019-02-28T00:44:15.707Z,37.54
2019-02-28T00:45:15.920Z,37.57
2019-02-28T00:46:15.840Z,37.55
2019-02-28T00:47:17.142Z,37.55
2019-02-28T00:48:22.244Z,37.58
2019-02-28T00:49:15.944Z,37.54
2019-02-28T00:50:15.759Z,37.54
2019-02-28T00:51:15.751Z,37.55
2019-02-28T00:52:16.897Z,37.54
2019-02-28T00:53:15.773Z,37.53
2019-02-28T00:54:15.777Z,37.52
2019-02-28T00:55:15.896Z,37.55
2019-02-28T00:56:18.406Z,37.57
2019-02-28T00:57:16.409Z,37.56
2019-02-28T00:58:15.708Z,37.51
2019-02-28T00:59:15.615Z,37.55
2019-02-28T01:00:15.711Z,37.58
2019-02-28T01:01:15.628Z,37.52
2019-02-28T01:02:18.683Z,37.56
2019-02-28T01:03:15.585Z,37.54
2019-02-28T01:04:16.871Z,37.56
2019-02-28T01:05:15.431Z,37.56
2019-02-28T01:06:15.913Z,37.58
2019-02-28T01:07:17.111Z,37.55
2019-02-28T01:08:15.452Z,37.55
2019-02-28T01:09:15.790Z,37.58
2019-02-28T01:10:15.589Z,37.57
2019-02-28T01:11:15.461Z,37.57
2019-02-28T01:12:20.190Z,37.57
2019-02-28T01:13:15.621Z,37.56
2019-02-28T01:14:15.361Z,37.56
2019-02-28T01:15:15.734Z,37.56
2019-02-28T01:16:20.158Z,37.56
2019-02-28T01:17:15.715Z,37.56
2019-02-28T01:18:15.750Z,37.56
2019-02-28T01:19:17.480Z,37.56
2019-02-28T01:20:16.854Z,37.57
2019-02-28T01:21:17.378Z,37.58
2019-02-28T01:22:15.948Z,37.59
2019-02-28T01:23:15.684Z,37.57
2019-02-28T01:24:15.716Z,37.61
2019-02-28T01:25:15.660Z,37.6
2019-02-28T01:26:16.704Z,37.61
2019-02-28T01:27:20.860Z,37.61
2019-02-28T01:28:15.932Z,37.6
2019-02-28T01:29:17.294Z,37.59
2019-02-28T01:30:15.572Z,37.62
2019-02-28T01:31:15.583Z,37.6
2019-02-28T01:32:16.466Z,37.6
2019-02-28T01:33:15.802Z,37.62
2019-02-28T01:34:15.976Z,37.58
2019-02-28T01:35:16.361Z,37.57
2019-02-28T01:36:16.395Z,37.58
2019-02-28T01:37:15.580Z,37.61
2019-02-28T01:38:15.670Z,37.63
2019-02-28T01:39:15.801Z,37.62
2019-02-28T01:40:17.227Z,37.64
2019-02-28T01:41:16.031Z,37.61
2019-02-28T01:42:20.795Z,37.61
2019-02-28T01:43:15.857Z,37.65
2019-02-28T01:44:15.937Z,37.67
2019-02-28T01:45:15.946Z,37.59
2019-02-28T01:46:17.893Z,37.61
2019-02-28T01:47:15.641Z,37.62
2019-02-28T01:48:15.220Z,37.62
2019-02-28T01:49:15.778Z,37.62
2019-02-28T01:50:15.657Z,37.62
2019-02-28T01:51:15.726Z,37.61
2019-02-28T01:52:15.333Z,37.62
2019-02-28T01:53:19.684Z,37.62
2019-02-28T01:54:15.609Z,37.61
2019-02-28T01:55:16.260Z,37.64
2019-02-28T01:56:15.803Z,37.63
2019-02-28T01:57:15.417Z,37.61
2019-02-28T01:58:17.503Z,37.62
2019-02-28T01:59:15.956Z,37.61
2019-02-28T02:00:15.553Z,37.62
2019-02-28T02:01:17.274Z,37.64
2019-02-28T02:02:16.689Z,37.66
2019-02-28T02:03:15.765Z,37.63
2019-02-28T02:04:16.061Z,37.65
2019-02-28T02:05:18.123Z,37.65
2019-02-28T02:06:15.604Z,37.65
2019-02-28T02:07:15.799Z,37.62
2019-02-28T02:08:15.567Z,37.64
2019-02-28T02:09:15.814Z,37.64
2019-02-28T02:10:21.391Z,37.64
2019-02-28T02:11:15.321Z,37.63
2019-02-28T02:12:17.316Z,37.62
2019-02-28T02:13:15.736Z,37.62
2019-02-28T02:14:15.642Z,37.62
2019-02-28T02:15:17.897Z,37.64
2019-02-28T02:16:15.656Z,37.61
2019-02-28T02:17:15.660Z,37.62
2019-02-28T02:18:15.859Z,37.64
2019-02-28T02:19:18.839Z,37.66
2019-02-28T02:20:15.660Z,37.63
2019-02-28T02:21:15.716Z,37.65
2019-02-28T02:22:15.813Z,37.64
2019-02-28T02:23:18.939Z,37.66
2019-02-28T02:24:15.749Z,37.64
2019-02-28T02:25:15.720Z,37.65
2019-02-28T02:26:15.426Z,37.64
2019-02-28T02:27:20.419Z,37.68
2019-02-28T02:28:16.359Z,37.61
2019-02-28T02:29:15.956Z,37.63
2019-02-28T02:30:16.378Z,37.66
2019-02-28T02:31:15.226Z,37.64
2019-02-28T02:32:15.720Z,37.65
2019-02-28T02:33:15.787Z,37.67
2019-02-28T02:34:17.219Z,37.65
2019-02-28T02:35:15.435Z,37.64
2019-02-28T02:36:17.849Z,37.65
2019-02-28T02:37:15.812Z,37.69
2019-02-28T02:38:15.404Z,37.66
2019-02-28T02:39:17.900Z,37.65
2019-02-28T02:40:15.234Z,37.66
2019-02-28T02:41:17.326Z,37.68
2019-02-28T02:42:15.849Z,37.65
2019-02-28T02:43:15.674Z,37.65
2019-02-28T02:44:15.733Z,37.64
2019-02-28T02:45:15.595Z,37.67
2019-02-28T02:46:21.336Z,37.66
2019-02-28T02:47:15.742Z,37.68
2019-02-28T02:48:15.218Z,37.68
2019-02-28T02:49:20.288Z,37.65
2019-02-28T02:50:16.818Z,37.64
2019-02-28T02:51:15.235Z,37.66
2019-02-28T02:52:15.715Z,37.68
2019-02-28T02:53:16.330Z,37.67
2019-02-28T02:54:20.300Z,37.69
2019-02-28T02:55:15.436Z,37.68
2019-02-28T02:56:15.410Z,37.71
2019-02-28T02:57:17.166Z,37.66
2019-02-28T02:58:16.990Z,37.67
2019-02-28T02:59:15.762Z,37.67
2019-02-28T03:00:15.503Z,37.68
2019-02-28T03:01:15.879Z,37.7
2019-02-28T03:02:15.793Z,37.67
2019-02-28T03:03:15.688Z,37.68
2019-02-28T03:04:23.157Z,37.68
2019-02-28T03:05:15.690Z,37.67
2019-02-28T03:06:15.706Z,37.67
2019-02-28T03:07:24.679Z,37.7
2019-02-28T03:08:15.833Z,37.68
2019-02-28T03:09:15.708Z,37.68
2019-02-28T03:10:19.829Z,37.67
2019-02-28T03:11:15.854Z,37.67
2019-02-28T03:12:15.723Z,37.67
2019-02-28T03:13:16.300Z,37.67
2019-02-28T03:14:17.812Z,37.67
2019-02-28T03:15:15.877Z,37.69
2019-02-28T03:16:16.153Z,37.69
2019-02-28T03:17:15.195Z,37.68
2019-02-28T03:18:21.766Z,37.67
2019-02-28T03:19:15.708Z,37.68
2019-02-28T03:20:15.802Z,37.69
2019-02-28T03:21:16.631Z,37.7
2019-02-28T03:22:16.038Z,37.71
2019-02-28T03:23:15.707Z,37.65
2019-02-28T03:24:16.552Z,37.69
2019-02-28T03:25:15.680Z,37.68
2019-02-28T03:26:15.651Z,37.67
2019-02-28T03:27:20.193Z,37.68
2019-02-28T03:28:15.683Z,37.67
2019-02-28T03:29:15.415Z,37.69
2019-02-28T03:30:31.720Z,37.66
2019-02-28T03:31:16.346Z,37.68
2019-02-28T03:32:15.733Z,37.72
2019-02-28T03:33:28.813Z,37.67
2019-02-28T03:34:15.867Z,37.68
2019-02-28T03:35:16.235Z,37.68
2019-02-28T03:36:17.213Z,37.69
2019-02-28T03:37:15.532Z,37.65
2019-02-28T03:38:15.424Z,37.66
2019-02-28T03:39:15.748Z,37.65
2019-02-28T03:40:15.976Z,37.67
2019-02-28T03:41:18.385Z,37.7
2019-02-28T03:42:15.891Z,37.68
2019-02-28T03:43:16.246Z,37.68
2019-02-28T03:44:21.652Z,37.64
2019-02-28T03:45:15.884Z,37.66
2019-02-28T03:46:15.994Z,37.65
2019-02-28T03:47:24.094Z,37.66
2019-02-28T03:48:15.800Z,37.67
2019-02-28T03:49:15.806Z,37.66
2019-02-28T03:50:15.411Z,37.66
2019-02-28T03:51:15.922Z,37.68
2019-02-28T03:52:15.661Z,37.7
2019-02-28T03:53:20.968Z,37.7
2019-02-28T03:54:15.654Z,37.66
2019-02-28T03:55:15.855Z,37.69
2019-02-28T03:56:16.171Z,37.67
2019-02-28T03:57:17.277Z,37.66
2019-02-28T03:58:15.642Z,37.66
2019-02-28T03:59:20.232Z,37.65
2019-02-28T04:00:15.708Z,37.67
2019-02-28T04:01:17.114Z,37.67
2019-02-28T04:02:22.303Z,37.69
2019-02-28T04:03:15.726Z,37.65
2019-02-28T04:04:15.927Z,37.69
2019-02-28T04:05:15.614Z,37.71
2019-02-28T04:06:15.661Z,37.68
2019-02-28T04:07:17.178Z,37.65
2019-02-28T04:08:15.645Z,37.67
2019-02-28T04:09:15.373Z,37.68
2019-02-28T04:10:22.399Z,37.68
2019-02-28T04:11:15.288Z,37.7
2019-02-28T04:12:15.458Z,37.68
2019-02-28T04:13:20.385Z,37.69
2019-02-28T04:14:15.682Z,37.66
2019-02-28T04:15:15.761Z,37.63
2019-02-28T04:16:15.251Z,37.65
2019-02-28T04:17:15.807Z,37.65
2019-02-28T04:18:15.832Z,37.67
2019-02-28T04:19:22.760Z,37.64
2019-02-28T04:20:16.729Z,37.64
2019-02-28T04:21:15.957Z,37.65
2019-02-28T04:22:23.140Z,37.66
2019-02-28T04:23:15.633Z,37.64
2019-02-28T04:24:15.395Z,37.64
2019-02-28T04:25:15.332Z,37.66
2019-02-28T04:26:15.360Z,37.64
2019-02-28T04:27:15.850Z,37.67
2019-02-28T04:28:19.097Z,37.65
2019-02-28T04:29:15.792Z,37.63
2019-02-28T04:30:17.341Z,37.65
2019-02-28T04:31:20.418Z,37.66
2019-02-28T04:32:15.602Z,37.64
2019-02-28T04:33:15.838Z,37.62
2019-02-28T04:34:15.318Z,37.65
2019-02-28T04:35:16.036Z,37.67
2019-02-28T04:36:15.834Z,37.68
2019-02-28T04:37:15.741Z,37.64
2019-02-28T04:38:21.439Z,37.67
2019-02-28T04:39:15.746Z,37.67
2019-02-28T04:40:15.641Z,37.63
2019-02-28T04:41:15.731Z,37.63
2019-02-28T04:42:16.415Z,37.6
2019-02-28T04:43:16.244Z,37.64
2019-02-28T04:44:18.996Z,37.63
2019-02-28T04:45:15.663Z,37.61
2019-02-28T04:46:15.616Z,37.63
2019-02-28T04:47:15.699Z,37.62
2019-02-28T04:48:15.662Z,37.59
2019-02-28T04:49:15.769Z,37.58
2019-02-28T04:50:15.670Z,37.62
2019-02-28T04:51:15.637Z,37.6
2019-02-28T04:52:15.752Z,37.58
2019-02-28T04:53:20.083Z,37.54
2019-02-28T04:54:15.819Z,37.6
2019-02-28T04:55:15.687Z,37.57
2019-02-28T04:56:15.874Z,37.57
2019-02-28T04:57:20.643Z,37.58
2019-02-28T04:58:17.157Z,37.65
2019-02-28T04:59:15.701Z,37.6
2019-02-28T05:00:15.473Z,37.59
2019-02-28T05:01:15.382Z,37.58
2019-02-28T05:02:20.693Z,37.51
2019-02-28T05:03:15.242Z,37.54
2019-02-28T05:04:15.854Z,37.5
2019-02-28T05:05:16.023Z,37.49
2019-02-28T05:06:21.141Z,37.48
2019-02-28T05:07:15.657Z,37.43
2019-02-28T05:08:15.660Z,37.44
2019-02-28T05:09:15.562Z,37.43
2019-02-28T05:10:15.192Z,37.43
2019-02-28T05:11:15.775Z,37.48
2019-02-28T05:12:15.940Z,37.39
2019-02-28T05:13:15.807Z,37.44
2019-02-28T05:14:15.643Z,37.45
2019-02-28T05:15:15.482Z,37.41
2019-02-28T05:16:15.570Z,37.43
2019-02-28T05:17:15.800Z,37.42
2019-02-28T05:18:16.635Z,37.48
2019-02-28T05:19:15.619Z,37.46
2019-02-28T05:20:15.754Z,37.47
2019-02-28T05:21:20.263Z,37.48
2019-02-28T05:22:15.825Z,37.5
2019-02-28T05:23:15.493Z,37.49
2019-02-28T05:24:15.772Z,37.51
2019-02-28T05:25:18.911Z,37.5
2019-02-28T05:26:15.759Z,37.48
2019-02-28T05:27:16.625Z,37.48
2019-02-28T05:28:17.313Z,37.48
2019-02-28T05:29:15.369Z,37.51
2019-02-28T05:30:19.910Z,37.51
2019-02-28T05:31:15.572Z,37.53
2019-02-28T05:32:15.271Z,37.54
2019-02-28T05:33:16.146Z,37.54
2019-02-28T05:34:16.974Z,37.56
2019-02-28T05:35:15.426Z,37.55
2019-02-28T05:36:15.222Z,37.57
2019-02-28T05:37:15.741Z,37.57
2019-02-28T05:38:15.347Z,37.57
2019-02-28T05:39:15.389Z,37.54
2019-02-28T05:40:15.677Z,37.55
2019-02-28T05:41:16.205Z,37.55
2019-02-28T05:42:16.025Z,37.56
2019-02-28T05:43:15.708Z,37.54
2019-02-28T05:44:15.202Z,37.49
2019-02-28T05:45:15.938Z,37.54
2019-02-28T05:46:15.745Z,37.52
2019-02-28T05:47:15.628Z,37.53
2019-02-28T05:48:15.831Z,37.54
2019-02-28T05:49:17.324Z,37.53
2019-02-28T05:50:17.487Z,37.52
2019-02-28T05:51:15.698Z,37.51
2019-02-28T05:52:15.677Z,37.47
2019-02-28T05:53:15.346Z,37.52
2019-02-28T05:54:17.329Z,37.54
2019-02-28T05:55:15.719Z,37.47
2019-02-28T05:56:15.375Z,37.5
2019-02-28T05:57:15.711Z,37.51
2019-02-28T05:58:18.880Z,37.5
2019-02-28T05:59:15.373Z,37.46
2019-02-28T06:00:15.804Z,37.5
2019-02-28T06:01:17.127Z,37.45
2019-02-28T06:02:23.256Z,37.51
2019-02-28T06:03:15.760Z,37.51
2019-02-28T06:04:15.663Z,37.48
2019-02-28T06:05:15.238Z,37.49
2019-02-28T06:06:20.256Z,37.52
2019-02-28T06:07:15.422Z,37.46
2019-02-28T06:08:15.338Z,37.48
2019-02-28T06:09:17.095Z,37.46
2019-02-28T06:10:15.580Z,37.48
2019-02-28T06:11:15.478Z,37.45
2019-02-28T06:12:15.195Z,37.41
2019-02-28T06:13:18.940Z,37.39
2019-02-28T06:14:15.910Z,37.41
2019-02-28T06:15:15.396Z,37.4
2019-02-28T06:16:15.597Z,37.4
2019-02-28T06:17:20.620Z,37.42
2019-02-28T06:18:15.181Z,37.38
2019-02-28T06:19:15.653Z,37.38
2019-02-28T06:20:18.093Z,37.38
2019-02-28T06:21:17.066Z,37.39
2019-02-28T06:22:15.578Z,37.39
2019-02-28T06:23:15.810Z,37.36
2019-02-28T06:24:15.200Z,37.35
2019-02-28T06:25:25.642Z,37.35
2019-02-28T06:26:15.798Z,37.31
2019-02-28T06:27:16.126Z,37.32
2019-02-28T06:28:15.902Z,37.32
2019-02-28T06:29:15.266Z,37.29
2019-02-28T06:30:15.180Z,37.34
2019-02-28T06:31:15.646Z,37.29
2019-02-28T06:32:15.379Z,37.27
2019-02-28T06:33:15.868Z,37.3
2019-02-28T06:34:16.272Z,37.3
2019-02-28T06:35:20.139Z,37.26
2019-02-28T06:36:15.209Z,37.27
2019-02-28T06:37:15.736Z,37.25
2019-02-28T06:38:19.876Z,37.28
2019-02-28T06:39:15.201Z,37.28
2019-02-28T06:40:15.729Z,37.29
2019-02-28T06:41:15.185Z,37.22
2019-02-28T06:42:15.614Z,37.21
2019-02-28T06:43:19.642Z,37.26
2019-02-28T06:44:15.398Z,37.21
2019-02-28T06:45:17.147Z,37.24
2019-02-28T06:46:15.632Z,37.21
2019-02-28T06:47:15.400Z,37.22
2019-02-28T06:48:15.654Z,37.18
2019-02-28T06:49:15.849Z,37.2
2019-02-28T06:50:15.437Z,37.2
2019-02-28T06:51:17.601Z,37.21
2019-02-28T06:52:15.421Z,37.21
2019-02-28T06:53:15.392Z,37.21
2019-02-28T06:54:17.170Z,37.19
2019-02-28T06:55:15.463Z,37.2
2019-02-28T06:56:22.363Z,37.2
2019-02-28T06:57:16.122Z,37.24
2019-02-28T06:58:15.721Z,37.19
2019-02-28T06:59:17.163Z,37.15
2019-02-28T07:00:15.290Z,37.14
2019-02-28T07:01:15.635Z,37.2
2019-02-28T07:02:15.618Z,37.16
2019-02-28T07:03:15.749Z,37.13
2019-02-28T07:04:15.669Z,37.15
2019-02-28T07:05:15.599Z,37.17
2019-02-28T07:06:15.707Z,37.31
2019-02-28T07:07:16.039Z,36.5
2019-02-28T07:08:15.791Z,36.25
2019-02-28T07:09:16.119Z,36.37
2019-02-28T07:10:15.411Z,36.62
2019-02-28T07:11:19.388Z,36.66
2019-02-28T07:12:15.573Z,36.83
2019-02-28T07:13:15.321Z,36.9
2019-02-28T07:14:15.740Z,36.8
2019-02-28T07:15:15.659Z,36.83
2019-02-28T07:16:15.306Z,36.78
2019-02-28T07:17:15.727Z,36.75
2019-02-28T07:18:15.191Z,36.73
2019-02-28T07:19:15.969Z,36.74
2019-02-28T07:20:15.697Z,36.71
2019-02-28T07:21:15.318Z,36.72
2019-02-28T07:22:19.742Z,36.79
2019-02-28T07:23:15.512Z,36.76
2019-02-28T07:24:15.451Z,36.7
2019-02-28T07:25:15.518Z,35.88
2019-02-28T07:26:19.563Z,35.97
2019-02-28T07:27:15.188Z,36.33
2019-02-28T07:28:15.675Z,36.4
2019-02-28T07:29:15.636Z,36.41
2019-02-28T07:30:19.147Z,36.4
2019-02-28T07:31:15.245Z,36.41
2019-02-28T07:32:15.767Z,36.46
2019-02-28T07:33:15.692Z,36.5
2019-02-28T07:34:22.021Z,36.52
2019-02-28T07:35:15.781Z,36.52
2019-02-28T07:36:15.158Z,36.55
2019-02-28T07:37:19.660Z,36.53
2019-02-28T07:38:15.804Z,36.55
2019-02-28T07:39:15.526Z,36.59
2019-02-28T07:40:17.300Z,36.58
2019-02-28T07:41:16.815Z,36.61
2019-02-28T07:42:16.757Z,36.6
2019-02-28T07:43:15.320Z,36.62
2019-02-28T07:44:22.263Z,36.66
2019-02-28T07:45:15.462Z,36.62
2019-02-28T07:46:15.791Z,36.59
2019-02-28T07:47:18.480Z,36.67
2019-02-28T07:48:15.379Z,36.68
2019-02-28T07:49:15.281Z,36.72
2019-02-28T07:50:15.381Z,36.63
2019-02-28T07:51:22.193Z,36.71
2019-02-28T07:52:15.297Z,36.7
2019-02-28T07:53:15.387Z,36.69
2019-02-28T07:54:16.764Z,36.71
2019-02-28T07:55:15.676Z,36.74
2019-02-28T07:56:15.842Z,36.74
2019-02-28T07:57:18.005Z,36.75
2019-02-28T07:58:15.952Z,36.75
2019-02-28T07:59:15.301Z,36.71
2019-02-28T08:00:18.547Z,36.73
2019-02-28T08:01:18.539Z,36.77
2019-02-28T08:02:15.775Z,36.77
2019-02-28T08:03:15.379Z,36.82
2019-02-28T08:04:19.447Z,36.79
2019-02-28T08:05:16.501Z,36.8
2019-02-28T08:06:15.405Z,36.81
2019-02-28T08:07:15.927Z,36.81
2019-02-28T08:08:15.937Z,36.83
2019-02-28T08:09:15.209Z,36.76
2019-02-28T08:10:16.747Z,36.84
2019-02-28T08:11:15.311Z,36.81
2019-02-28T08:12:15.566Z,36.85
2019-02-28T08:13:15.572Z,36.81
2019-02-28T08:14:15.363Z,36.8
2019-02-28T08:15:22.460Z,36.91
2019-02-28T08:16:15.472Z,36.85
2019-02-28T08:17:15.568Z,36.88
2019-02-28T08:18:18.823Z,36.82
2019-02-28T08:19:15.316Z,36.79
2019-02-28T08:20:15.738Z,36.91
2019-02-28T08:21:17.079Z,36.78
2019-02-28T08:22:15.613Z,36.84
2019-02-28T08:23:15.318Z,36.88
2019-02-28T08:24:15.758Z,36.91
2019-02-28T08:25:16.254Z,36.85
2019-02-28T08:26:19.720Z,36.93
2019-02-28T08:27:16.073Z,36.92
2019-02-28T08:28:17.138Z,36.87
2019-02-28T08:29:15.750Z,36.8
2019-02-28T08:30:19.407Z,36.91
2019-02-28T08:31:15.741Z,36.86
2019-02-28T08:32:15.689Z,36.83
2019-02-28T08:33:17.148Z,36.91
2019-02-28T08:34:15.410Z,36.89
2019-02-28T08:35:17.236Z,36.95
2019-02-28T08:36:15.279Z,36.93
2019-02-28T08:37:20.186Z,36.92
2019-02-28T08:38:15.621Z,36.93
2019-02-28T08:39:16.488Z,36.92
2019-02-28T08:40:16.465Z,36.97
2019-02-28T08:41:17.191Z,36.89
2019-02-28T08:42:15.058Z,36.87
2019-02-28T08:43:15.168Z,36.92
2019-02-28T08:44:15.295Z,36.95
2019-02-28T08:45:15.142Z,36.88
2019-02-28T08:46:15.246Z,36.91
2019-02-28T08:47:20.944Z,36.87
2019-02-28T08:48:15.191Z,36.89
2019-02-28T08:49:15.053Z,36.92
2019-02-28T08:50:21.589Z,37
2019-02-28T08:51:15.261Z,36.9
2019-02-28T08:52:15.104Z,37
2019-02-28T08:53:16.344Z,36.92
2019-02-28T08:54:15.090Z,36.91
2019-02-28T08:55:15.172Z,36.97
2019-02-28T08:56:15.286Z,36.99
2019-02-28T08:57:15.130Z,36.96
2019-02-28T08:58:15.367Z,37.01
2019-02-28T08:59:21.781Z,36.98
2019-02-28T09:00:15.174Z,36.91
2019-02-28T09:01:15.039Z,36.97
2019-02-28T09:02:19.078Z,36.96
2019-02-28T09:03:15.238Z,36.98
2019-02-28T09:04:15.097Z,36.96
2019-02-28T09:05:15.238Z,37
2019-02-28T09:06:15.031Z,36.93
2019-02-28T09:07:16.047Z,36.99
2019-02-28T09:08:15.015Z,36.97
2019-02-28T09:09:15.169Z,37.08
2019-02-28T09:10:15.248Z,37.02
2019-02-28T09:11:15.079Z,36.95
2019-02-28T09:12:15.220Z,37.03
2019-02-28T09:13:15.055Z,37.07
2019-02-28T09:14:18.725Z,36.98
2019-02-28T09:15:15.024Z,36.99
2019-02-28T09:16:16.417Z,37.01
2019-02-28T09:17:18.534Z,37.05
2019-02-28T09:18:15.082Z,36.97
2019-02-28T09:19:17.360Z,37.04
2019-02-28T09:20:17.161Z,36.99
2019-02-28T09:21:19.218Z,36.99
2019-02-28T09:22:17.280Z,36.99
2019-02-28T09:23:17.190Z,37
2019-02-28T09:24:15.341Z,36.94
2019-02-28T09:25:15.412Z,36.99
2019-02-28T09:26:15.140Z,37.07
2019-02-28T09:27:15.159Z,37.01
2019-02-28T09:28:15.325Z,37.01
2019-02-28T09:29:15.321Z,37.03
2019-02-28T09:30:15.314Z,37.05
2019-02-28T09:31:15.346Z,37.03
2019-02-28T09:32:15.181Z,37.02
2019-02-28T09:33:15.245Z,37.05
2019-02-28T09:34:15.043Z,36.98
2019-02-28T09:35:15.147Z,37
2019-02-28T09:36:21.436Z,37.05
2019-02-28T09:37:15.403Z,36.98
2019-02-28T09:38:15.176Z,36.96
2019-02-28T09:39:20.134Z,37.08
2019-02-28T09:40:14.997Z,37.08
2019-02-28T09:41:15.233Z,37.07
2019-02-28T09:42:15.991Z,37.13
2019-02-28T09:43:15.594Z,37.04
2019-02-28T09:44:15.158Z,37.04
2019-02-28T09:45:15.369Z,37.07
2019-02-28T09:46:16.479Z,37.08
2019-02-28T09:47:15.589Z,37.02
2019-02-28T09:48:15.262Z,37.01
2019-02-28T09:49:15.103Z,36.98
2019-02-28T09:50:15.333Z,37.08
2019-02-28T09:51:15.207Z,37.02
2019-02-28T09:52:15.104Z,37.1
2019-02-28T09:53:16.888Z,37.06
2019-02-28T09:54:15.284Z,37.08
2019-02-28T09:55:15.061Z,37
2019-02-28T09:56:15.270Z,37.05
2019-02-28T09:57:19.843Z,37.05
2019-02-28T09:58:15.071Z,37.04
2019-02-28T09:59:15.209Z,37.09
2019-02-28T10:00:15.291Z,37.08
2019-02-28T10:01:15.354Z,36.97
2019-02-28T10:02:15.246Z,37
2019-02-28T10:03:18.536Z,37.07
2019-02-28T10:04:15.348Z,37.12
2019-02-28T10:05:15.178Z,36.99
2019-02-28T10:06:17.186Z,37.06
2019-02-28T10:07:15.272Z,37.12
2019-02-28T10:08:15.243Z,37.04
2019-02-28T10:09:17.772Z,37.01
2019-02-28T10:10:20.751Z,37.09
2019-02-28T10:11:15.484Z,37.07
2019-02-28T10:12:15.201Z,37.05
2019-02-28T10:13:18.541Z,37.07
2019-02-28T10:14:15.200Z,37.12
2019-02-28T10:15:15.319Z,37
2019-02-28T10:16:17.647Z,37.08
2019-02-28T10:17:15.207Z,37.12
2019-02-28T10:18:15.333Z,37.04
2019-02-28T10:19:15.357Z,37.07
2019-02-28T10:20:16.569Z,37.07
2019-02-28T10:21:15.330Z,37.04
2019-02-28T10:22:15.513Z,37.12
2019-02-28T10:23:15.142Z,37.09
2019-02-28T10:24:15.340Z,37.09
2019-02-28T10:25:15.007Z,37.04
2019-02-28T10:26:17.904Z,37.06
2019-02-28T10:27:15.156Z,37.08
2019-02-28T10:28:15.345Z,37.12
2019-02-28T10:29:15.164Z,37.08
2019-02-28T10:30:16.853Z,37.1
2019-02-28T10:31:15.320Z,37.05
2019-02-28T10:32:15.121Z,37.04
2019-02-28T10:33:18.205Z,37.04
2019-02-28T10:34:15.001Z,37.1
2019-02-28T10:35:15.160Z,37.08
2019-02-28T10:36:15.184Z,37.08
2019-02-28T10:37:15.194Z,37.06
2019-02-28T10:38:16.187Z,37.09
2019-02-28T10:39:15.268Z,37.06
2019-02-28T10:40:18.703Z,37.13
2019-02-28T10:41:15.594Z,37.08
2019-02-28T10:42:15.344Z,37.12
2019-02-28T10:43:16.507Z,37.06
2019-02-28T10:44:15.205Z,37.09
2019-02-28T10:45:15.230Z,37.11
2019-02-28T10:46:20.209Z,37.14
2019-02-28T10:47:15.269Z,37.11
2019-02-28T10:48:15.276Z,37.06
2019-02-28T10:49:16.986Z,37.15
2019-02-28T10:50:15.185Z,37.1
2019-02-28T10:51:15.287Z,37.1
2019-02-28T10:52:15.093Z,37.12
2019-02-28T10:53:15.273Z,37.06
2019-02-28T10:54:15.483Z,37.16
2019-02-28T10:55:15.062Z,37.04
2019-02-28T10:56:15.152Z,37.12
2019-02-28T10:57:15.213Z,37.13
2019-02-28T10:58:16.251Z,37.08
2019-02-28T10:59:15.416Z,37.08
2019-02-28T11:00:15.178Z,37.15
2019-02-28T11:01:15.023Z,37.04
2019-02-28T11:02:19.932Z,37.11
2019-02-28T11:03:15.155Z,37.09
2019-02-28T11:04:15.272Z,37.09
2019-02-28T11:05:18.877Z,37.12
2019-02-28T11:06:15.205Z,37.16
2019-02-28T11:07:15.300Z,37.03
2019-02-28T11:08:19.302Z,37.11
2019-02-28T11:09:15.292Z,37.04
2019-02-28T11:10:15.222Z,37.13
2019-02-28T11:11:15.053Z,37.12
2019-02-28T11:12:23.632Z,37.16
2019-02-28T11:13:15.224Z,37.05
2019-02-28T11:14:15.040Z,37.09
2019-02-28T11:15:15.104Z,37.04
2019-02-28T11:16:15.173Z,37.13
2019-02-28T11:17:15.008Z,37.16
2019-02-28T11:18:15.029Z,37.05
2019-02-28T11:19:19.602Z,37.2
2019-02-28T11:20:22.581Z,37.17
2019-02-28T11:21:15.586Z,37.17
2019-02-28T11:22:15.307Z,37.16
2019-02-28T11:23:16.102Z,37.11
2019-02-28T11:24:15.120Z,37.09
2019-02-28T11:25:15.298Z,37.09
2019-02-28T11:26:15.073Z,37.12
2019-02-28T11:27:20.894Z,37.16
2019-02-28T11:28:15.249Z,37.06
2019-02-28T11:29:15.222Z,37.04
2019-02-28T11:30:15.278Z,37.17
2019-02-28T11:31:19.942Z,37.08
2019-02-28T11:32:15.288Z,37.09
2019-02-28T11:33:15.126Z,37.13
2019-02-28T11:34:16.076Z,37.06
2019-02-28T11:35:15.050Z,37.12
2019-02-28T11:36:15.203Z,37.11
2019-02-28T11:37:15.237Z,37.07
2019-02-28T11:38:21.611Z,37.1
2019-02-28T11:39:15.104Z,37.11
2019-02-28T11:40:15.258Z,37.14
2019-02-28T11:41:19.373Z,37.09
2019-02-28T11:42:15.250Z,37.08
2019-02-28T11:43:15.281Z,37.11
2019-02-28T11:44:15.092Z,37.07
2019-02-28T11:45:15.127Z,37.13
2019-02-28T11:46:15.240Z,37.12
2019-02-28T11:47:15.062Z,37.13
2019-02-28T11:48:20.373Z,37.16
2019-02-28T11:49:15.203Z,37.15
2019-02-28T11:50:15.113Z,37.15
2019-02-28T11:51:18.584Z,37.14
2019-02-28T11:52:16.207Z,37.12
2019-02-28T11:53:15.376Z,37.16
2019-02-28T11:54:15.124Z,37.17
2019-02-28T11:55:20.264Z,37.14
2019-02-28T11:56:15.205Z,37.17
2019-02-28T11:57:15.049Z,37.17
2019-02-28T11:58:18.205Z,37.17
2019-02-28T11:59:15.248Z,37.16
2019-02-28T12:00:15.072Z,37.11
2019-02-28T12:01:15.103Z,37.18
2019-02-28T12:02:15.214Z,37.19
2019-02-28T12:03:15.059Z,37.12
2019-02-28T12:04:15.186Z,37.08
2019-02-28T12:05:16.612Z,37.17
2019-02-28T12:06:15.312Z,37.2
2019-02-28T12:07:15.220Z,37.15
2019-02-28T12:08:15.209Z,37.19
2019-02-28T12:09:19.325Z,37.18
2019-02-28T12:10:15.334Z,37.1
2019-02-28T12:11:15.151Z,37.15
2019-02-28T12:12:14.985Z,37.17
2019-02-28T12:13:19.755Z,37.16
2019-02-28T12:14:15.173Z,37.15
2019-02-28T12:15:15.100Z,37.18
2019-02-28T12:16:20.010Z,37.19
2019-02-28T12:17:15.248Z,37.13
2019-02-28T12:18:15.010Z,37.21
2019-02-28T12:19:16.815Z,37.17
2019-02-28T12:20:15.132Z,37.13
2019-02-28T12:21:15.299Z,37.15
2019-02-28T12:22:15.090Z,37.14
2019-02-28T12:23:15.137Z,37.12
2019-02-28T12:24:16.227Z,37.13
2019-02-28T12:25:15.052Z,37.16
2019-02-28T12:26:18.780Z,37.12
2019-02-28T12:27:15.217Z,37.17
2019-02-28T12:28:15.151Z,37.09
2019-02-28T12:29:15.447Z,37.14
2019-02-28T12:30:15.290Z,37.16
2019-02-28T12:31:15.095Z,37.2
2019-02-28T12:32:15.376Z,37.17
2019-02-28T12:33:22.254Z,37.21
2019-02-28T12:34:15.280Z,37.17
2019-02-28T12:35:15.101Z,37.16
2019-02-28T12:36:15.501Z,37.22
2019-02-28T12:37:15.078Z,37.19
2019-02-28T12:38:15.091Z,37.27
2019-02-28T12:39:15.419Z,37.21
2019-02-28T12:40:15.297Z,37.2
2019-02-28T12:41:15.177Z,37.2
2019-02-28T12:42:15.287Z,37.17
2019-02-28T12:43:15.081Z,37.23
2019-02-28T12:44:16.276Z,37.24
2019-02-28T12:45:15.647Z,37.15
2019-02-28T12:46:15.043Z,37.24
2019-02-28T12:47:15.126Z,37.17
2019-02-28T12:48:15.393Z,37.23
2019-02-28T12:49:15.097Z,37.15
2019-02-28T12:50:15.092Z,37.19
2019-02-28T12:51:15.557Z,37.2
2019-02-28T12:52:15.622Z,37.16
2019-02-28T12:53:15.063Z,37.25
2019-02-28T12:54:15.187Z,37.14
2019-02-28T12:55:15.057Z,37.14